sensor_id;sensor_type;location;lat;lon;timestamp;P1;durP1;ratioP1;P2;durP2;ratioP2
22017;SDS011;11173;51.050;7.108;2023-04-03T00:02:58;2.45;;;2.35;;
22017;SDS011;11173;51.050;7.108;2023-04-03T00:12:59;3.10;;;2.90;;
22017;SDS011;11173;51.050;7.108;2023-04-03T00:23:00;3.65;;;2.75;;
22017;SDS011;11173;51.050;7.108;2023-04-03T00:33:01;2.92;;;2.72;;
22017;SDS011;11173;51.050;7.108;2023-04-03T00:43:01;4.10;;;3.13;;
22017;SDS011;11173;51.050;7.108;2023-04-03T00:53:06;4.63;;;3.03;;
22017;SDS011;11173;51.050;7.108;2023-04-03T01:03:08;2.78;;;2.63;;
22017;SDS011;11173;51.050;7.108;2023-04-03T01:13:19;3.58;;;3.38;;
22017;SDS011;11173;51.050;7.108;2023-04-03T01:23:38;3.15;;;2.95;;
22017;SDS011;11173;51.050;7.108;2023-04-03T01:33:47;3.50;;;3.30;;
22017;SDS011;11173;51.050;7.108;2023-04-03T01:43:47;4.23;;;3.83;;
22017;SDS011;11173;51.050;7.108;2023-04-03T01:53:48;3.60;;;3.40;;
22017;SDS011;11173;51.050;7.108;2023-04-03T02:03:49;6.95;;;3.72;;
22017;SDS011;11173;51.050;7.108;2023-04-03T02:13:49;4.55;;;3.40;;
22017;SDS011;11173;51.050;7.108;2023-04-03T02:23:50;3.58;;;3.28;;
22017;SDS011;11173;51.050;7.108;2023-04-03T02:33:50;2.83;;;2.67;;
22017;SDS011;11173;51.050;7.108;2023-04-03T02:43:51;3.10;;;2.90;;
22017;SDS011;11173;51.050;7.108;2023-04-03T02:53:51;4.22;;;2.60;;
22017;SDS011;11173;51.050;7.108;2023-04-03T03:03:51;3.40;;;2.60;;
22017;SDS011;11173;51.050;7.108;2023-04-03T03:13:52;2.92;;;2.30;;
22017;SDS011;11173;51.050;7.108;2023-04-03T03:23:52;5.30;;;2.40;;
22017;SDS011;11173;51.050;7.108;2023-04-03T03:33:53;2.88;;;2.33;;
22017;SDS011;11173;51.050;7.108;2023-04-03T03:43:53;2.70;;;2.50;;
22017;SDS011;11173;51.050;7.108;2023-04-03T03:53:53;3.80;;;2.33;;
22017;SDS011;11173;51.050;7.108;2023-04-03T04:03:54;5.63;;;2.40;;
22017;SDS011;11173;51.050;7.108;2023-04-03T04:13:55;3.78;;;2.33;;
22017;SDS011;11173;51.050;7.108;2023-04-03T04:23:55;5.25;;;2.83;;
22017;SDS011;11173;51.050;7.108;2023-04-03T04:33:56;3.47;;;2.30;;
22017;SDS011;11173;51.050;7.108;2023-04-03T04:43:56;3.33;;;2.28;;
22017;SDS011;11173;51.050;7.108;2023-04-03T04:53:57;2.78;;;2.55;;
22017;SDS011;11173;51.050;7.108;2023-04-03T05:03:57;4.40;;;2.72;;
22017;SDS011;11173;51.050;7.108;2023-04-03T05:13:58;3.55;;;2.90;;
22017;SDS011;11173;51.050;7.108;2023-04-03T05:23:59;2.63;;;2.47;;
22017;SDS011;11173;51.050;7.108;2023-04-03T05:34:02;2.85;;;2.65;;
22017;SDS011;11173;51.050;7.108;2023-04-03T05:44:03;4.35;;;2.40;;
22017;SDS011;11173;51.050;7.108;2023-04-03T05:54:11;5.35;;;2.83;;
22017;SDS011;11173;51.050;7.108;2023-04-03T06:04:16;2.80;;;2.40;;
22017;SDS011;11173;51.050;7.108;2023-04-03T06:14:16;3.45;;;2.33;;
22017;SDS011;11173;51.050;7.108;2023-04-03T06:24:17;2.60;;;2.40;;
22017;SDS011;11173;51.050;7.108;2023-04-03T06:34:18;3.72;;;2.42;;
22017;SDS011;11173;51.050;7.108;2023-04-03T06:44:18;3.22;;;2.35;;
22017;SDS011;11173;51.050;7.108;2023-04-03T06:54:18;3.55;;;2.38;;
22017;SDS011;11173;51.050;7.108;2023-04-03T07:04:19;2.17;;;1.90;;
22017;SDS011;11173;51.050;7.108;2023-04-03T07:14:22;5.70;;;2.33;;
22017;SDS011;11173;51.050;7.108;2023-04-03T07:24:22;2.45;;;1.90;;
22017;SDS011;11173;51.050;7.108;2023-04-03T07:34:23;8.35;;;2.00;;
22017;SDS011;11173;51.050;7.108;2023-04-03T07:44:23;8.82;;;2.15;;
22017;SDS011;11173;51.050;7.108;2023-04-03T07:54:24;3.10;;;1.60;;
22017;SDS011;11173;51.050;7.108;2023-04-03T08:04:25;3.13;;;1.83;;
22017;SDS011;11173;51.050;7.108;2023-04-03T08:14:26;2.80;;;2.20;;
22017;SDS011;11173;51.050;7.108;2023-04-03T08:24:26;3.05;;;1.70;;
22017;SDS011;11173;51.050;7.108;2023-04-03T08:34:26;3.17;;;1.75;;
22017;SDS011;11173;51.050;7.108;2023-04-03T08:54:51;2.45;;;1.40;;
22017;SDS011;11173;51.050;7.108;2023-04-03T09:04:54;2.10;;;1.20;;
22017;SDS011;11173;51.050;7.108;2023-04-03T09:25:15;2.38;;;1.00;;
22017;SDS011;11173;51.050;7.108;2023-04-03T09:35:19;1.65;;;1.17;;
22017;SDS011;11173;51.050;7.108;2023-04-03T09:45:30;4.13;;;1.33;;
22017;SDS011;11173;51.050;7.108;2023-04-03T09:55:32;1.80;;;1.00;;
22017;SDS011;11173;51.050;7.108;2023-04-03T10:05:42;1.30;;;0.80;;
22017;SDS011;11173;51.050;7.108;2023-04-03T10:15:43;1.63;;;1.10;;
22017;SDS011;11173;51.050;7.108;2023-04-03T10:25:53;0.85;;;0.85;;
22017;SDS011;11173;51.050;7.108;2023-04-03T10:46:27;1.43;;;0.93;;
22017;SDS011;11173;51.050;7.108;2023-04-03T10:56:41;1.52;;;0.88;;
22017;SDS011;11173;51.050;7.108;2023-04-03T11:06:56;2.05;;;0.85;;
22017;SDS011;11173;51.050;7.108;2023-04-03T11:27:17;2.28;;;0.80;;
22017;SDS011;11173;51.050;7.108;2023-04-03T11:37:38;0.98;;;0.65;;
22017;SDS011;11173;51.050;7.108;2023-04-03T11:47:45;1.05;;;0.80;;
22017;SDS011;11173;51.050;7.108;2023-04-03T12:29:10;0.60;;;0.60;;
22017;SDS011;11173;51.050;7.108;2023-04-03T12:39:39;2.00;;;0.85;;
22017;SDS011;11173;51.050;7.108;2023-04-03T12:49:48;3.47;;;0.60;;
22017;SDS011;11173;51.050;7.108;2023-04-03T12:59:52;2.63;;;1.00;;
22017;SDS011;11173;51.050;7.108;2023-04-03T13:09:56;1.40;;;0.93;;
22017;SDS011;11173;51.050;7.108;2023-04-03T13:20:16;1.20;;;0.60;;
22017;SDS011;11173;51.050;7.108;2023-04-03T13:40:26;1.58;;;0.80;;
22017;SDS011;11173;51.050;7.108;2023-04-03T13:50:26;1.20;;;0.90;;
22017;SDS011;11173;51.050;7.108;2023-04-03T14:10:31;0.98;;;0.70;;
22017;SDS011;11173;51.050;7.108;2023-04-03T14:20:32;2.88;;;1.00;;
22017;SDS011;11173;51.050;7.108;2023-04-03T14:30:33;3.78;;;1.00;;
22017;SDS011;11173;51.050;7.108;2023-04-03T14:40:33;1.30;;;0.90;;
22017;SDS011;11173;51.050;7.108;2023-04-03T14:50:34;1.02;;;1.00;;
22017;SDS011;11173;51.050;7.108;2023-04-03T15:00:34;3.97;;;1.20;;
22017;SDS011;11173;51.050;7.108;2023-04-03T15:10:34;2.70;;;1.08;;
22017;SDS011;11173;51.050;7.108;2023-04-03T15:20:35;2.08;;;0.90;;
22017;SDS011;11173;51.050;7.108;2023-04-03T15:30:36;2.20;;;1.00;;
22017;SDS011;11173;51.050;7.108;2023-04-03T15:40:39;1.05;;;0.85;;
22017;SDS011;11173;51.050;7.108;2023-04-03T15:50:40;1.63;;;1.05;;
22017;SDS011;11173;51.050;7.108;2023-04-03T16:00:41;1.00;;;0.90;;
22017;SDS011;11173;51.050;7.108;2023-04-03T16:10:41;3.08;;;0.85;;
22017;SDS011;11173;51.050;7.108;2023-04-03T16:20:42;1.15;;;0.82;;
22017;SDS011;11173;51.050;7.108;2023-04-03T16:30:44;3.78;;;1.10;;
22017;SDS011;11173;51.050;7.108;2023-04-03T16:40:46;2.08;;;1.10;;
22017;SDS011;11173;51.050;7.108;2023-04-03T16:50:47;0.88;;;0.85;;
22017;SDS011;11173;51.050;7.108;2023-04-03T17:00:48;2.85;;;0.95;;
22017;SDS011;11173;51.050;7.108;2023-04-03T17:10:49;7.75;;;1.33;;
22017;SDS011;11173;51.050;7.108;2023-04-03T17:20:51;0.98;;;0.85;;
22017;SDS011;11173;51.050;7.108;2023-04-03T17:30:52;1.67;;;1.05;;
22017;SDS011;11173;51.050;7.108;2023-04-03T17:40:56;4.18;;;1.38;;
22017;SDS011;11173;51.050;7.108;2023-04-03T17:50:57;2.25;;;1.38;;
22017;SDS011;11173;51.050;7.108;2023-04-03T18:00:58;2.60;;;1.23;;
22017;SDS011;11173;51.050;7.108;2023-04-03T18:10:58;2.08;;;1.20;;
22017;SDS011;11173;51.050;7.108;2023-04-03T18:20:59;3.63;;;1.50;;
22017;SDS011;11173;51.050;7.108;2023-04-03T18:30:59;1.05;;;1.00;;
22017;SDS011;11173;51.050;7.108;2023-04-03T18:41:01;2.08;;;1.30;;
22017;SDS011;11173;51.050;7.108;2023-04-03T18:51:03;3.08;;;1.35;;
22017;SDS011;11173;51.050;7.108;2023-04-03T19:01:05;2.88;;;1.35;;
22017;SDS011;11173;51.050;7.108;2023-04-03T19:11:05;2.55;;;1.50;;
22017;SDS011;11173;51.050;7.108;2023-04-03T19:21:06;5.10;;;1.50;;
22017;SDS011;11173;51.050;7.108;2023-04-03T19:31:14;2.05;;;1.77;;
22017;SDS011;11173;51.050;7.108;2023-04-03T19:41:22;1.33;;;1.20;;
22017;SDS011;11173;51.050;7.108;2023-04-03T19:51:26;3.50;;;1.83;;
22017;SDS011;11173;51.050;7.108;2023-04-03T20:01:26;2.10;;;1.73;;
22017;SDS011;11173;51.050;7.108;2023-04-03T20:11:29;1.63;;;1.48;;
22017;SDS011;11173;51.050;7.108;2023-04-03T20:21:30;1.42;;;1.33;;
22017;SDS011;11173;51.050;7.108;2023-04-03T20:31:31;1.83;;;1.42;;
22017;SDS011;11173;51.050;7.108;2023-04-03T20:41:32;1.60;;;1.50;;
22017;SDS011;11173;51.050;7.108;2023-04-03T20:51:34;2.95;;;1.85;;
22017;SDS011;11173;51.050;7.108;2023-04-03T21:01:35;1.83;;;1.73;;
22017;SDS011;11173;51.050;7.108;2023-04-03T21:22:14;1.83;;;1.73;;
22017;SDS011;11173;51.050;7.108;2023-04-03T21:32:15;1.90;;;1.80;;
22017;SDS011;11173;51.050;7.108;2023-04-03T21:42:15;2.65;;;1.48;;
22017;SDS011;11173;51.050;7.108;2023-04-03T21:52:16;1.90;;;1.80;;
22017;SDS011;11173;51.050;7.108;2023-04-03T22:02:16;1.92;;;1.70;;
22017;SDS011;11173;51.050;7.108;2023-04-03T22:12:17;1.80;;;1.70;;
22017;SDS011;11173;51.050;7.108;2023-04-03T22:22:17;2.00;;;1.90;;
22017;SDS011;11173;51.050;7.108;2023-04-03T22:32:17;1.98;;;1.88;;
22017;SDS011;11173;51.050;7.108;2023-04-03T22:42:18;2.10;;;1.95;;
22017;SDS011;11173;51.050;7.108;2023-04-03T22:52:18;1.67;;;1.58;;
22017;SDS011;11173;51.050;7.108;2023-04-03T23:02:18;1.92;;;1.45;;
22017;SDS011;11173;51.050;7.108;2023-04-03T23:12:19;1.60;;;1.50;;
22017;SDS011;11173;51.050;7.108;2023-04-03T23:22:19;2.03;;;1.85;;
22017;SDS011;11173;51.050;7.108;2023-04-03T23:32:20;1.90;;;1.80;;
22017;SDS011;11173;51.050;7.108;2023-04-03T23:42:20;1.95;;;1.85;;
22017;SDS011;11173;51.050;7.108;2023-04-03T23:52:20;2.17;;;2.00;;
